Terminal Aerodrome Forecast
Issued by NWS Blacksburg, VA

Home | Current Version | Previous Version | Text Only | Print | Product List | Glossary On
Versions: 1 2 3 4 5 6 7 8 9 10 11 12 13 14 15
000
FTUS41 KRNK 151135
TAFROA
TAF
KROA 151135Z 1512/1612 19004KT P6SM OVC025
     FM151800 27005KT P6SM BKN040
     FM152000 27007G14KT P6SM SCT040
     FM152300 29012G24KT P6SM FEW250=

USA.gov is the U.S. government's official web portal to all federal, state and local government web resources and services.